map of LQK home
LQK - Airport
Location
City:  Pickens, South Carolina, United States
Name:Pickens County Airport
ICAO:KLQK
IATA:LQK
FAA LID:LQK

Details
Type:Airport (Airfield)
Use:Public/Civil
Latitude:3448'36"N (34.809972)
Longitude:8242'10"W (-82.702888)
Datum:WGS 1984
Elevation:1013 ft (309 m)
Variation:6.49W (WMM2015 magnetic declination)
-0.07 annual change
Runways:1
Longest:5002 × 100 ft (1525 × 30.5 m), paved

Time
Time Zone:UTC-5 (DST-4)
Local Time:

Weather
METAR:KLQK 210955Z AUTO 21004KT 10SM SCT007 SCT012 SCT026 22/22 A3001 RMK AO2 T02210221

Related Locations
Nearby:
Farthest:YAUG: 11426 mi / 18389 km
Augusta [Augusta Airport], WA, AU

Find:

   beyond  
but within

Other Information
Maps:
NOTAMs:
Links:
Sources:

  
  • flag of United States
  • flag of South Carolina
  

Sectional Chart

Flight Planning
at skyvector.com

Satellite Image

Google Maps Satellite view

 

Copyright © 2004-2018 Karl L. Swartz. All rights reserved.
The Great Circle Mapper name and logo are trademarks of the Great Circle Mapper.
All other trademarks mentioned herein belong to their respective owners.
Please see credits for attibutions and further copyright information.

  Follow gcmap on Facebook Follow gcmap on Twitter Follow gcmap on Google+ GCmap on LinkedIn

hCard Microformat

Geo Microformat